sensor_id;sensor_type;location;lat;lon;timestamp;pressure;altitude;pressure_sealevel;temperature;humidity
45040;BME280;30778;53.574;7.770;2023-02-25T00:00:08;100243.38;;;2.19;50.58
45040;BME280;30778;53.574;7.770;2023-02-25T00:02:47;100243.31;;;2.24;50.67
45040;BME280;30778;53.574;7.770;2023-02-25T00:05:15;100245.03;;;2.23;51.15
45040;BME280;30778;53.574;7.770;2023-02-25T00:07:40;100246.84;;;2.18;51.27
45040;BME280;30778;53.574;7.770;2023-02-25T00:10:07;100243.13;;;2.34;51.17
45040;BME280;30778;53.574;7.770;2023-02-25T00:12:34;100243.97;;;2.37;50.87
45040;BME280;30778;53.574;7.770;2023-02-25T00:14:59;100240.47;;;2.42;50.00
45040;BME280;30778;53.574;7.770;2023-02-25T00:17:25;100252.97;;;2.11;50.27
45040;BME280;30778;53.574;7.770;2023-02-25T00:19:50;100243.22;;;2.28;49.39
45040;BME280;30778;53.574;7.770;2023-02-25T00:22:16;100240.72;;;2.24;49.05
45040;BME280;30778;53.574;7.770;2023-02-25T00:24:41;100239.06;;;2.20;49.23
45040;BME280;30778;53.574;7.770;2023-02-25T00:27:07;100245.66;;;2.39;48.66
45040;BME280;30778;53.574;7.770;2023-02-25T00:29:33;100246.31;;;2.50;48.51
45040;BME280;30778;53.574;7.770;2023-02-25T00:32:00;100249.53;;;2.65;48.45
45040;BME280;30778;53.574;7.770;2023-02-25T00:34:26;100252.75;;;2.25;49.12
45040;BME280;30778;53.574;7.770;2023-02-25T00:36:54;100256.13;;;2.30;48.74
45040;BME280;30778;53.574;7.770;2023-02-25T00:39:20;100253.75;;;2.16;49.05
45040;BME280;30778;53.574;7.770;2023-02-25T00:41:45;100250.88;;;2.34;48.94
45040;BME280;30778;53.574;7.770;2023-02-25T00:44:10;100255.72;;;2.53;49.11
45040;BME280;30778;53.574;7.770;2023-02-25T00:46:37;100263.38;;;2.59;48.68
45040;BME280;30778;53.574;7.770;2023-02-25T00:49:02;100264.16;;;2.64;48.77
45040;BME280;30778;53.574;7.770;2023-02-25T00:51:30;100265.78;;;2.70;48.98
45040;BME280;30778;53.574;7.770;2023-02-25T00:53:55;100263.63;;;2.44;49.16
45040;BME280;30778;53.574;7.770;2023-02-25T00:56:22;100278.09;;;2.54;48.82
45040;BME280;30778;53.574;7.770;2023-02-25T00:58:49;100266.69;;;2.67;49.11
45040;BME280;30778;53.574;7.770;2023-02-25T01:01:19;100280.44;;;2.69;48.71
45040;BME280;30778;53.574;7.770;2023-02-25T01:03:46;100283.16;;;2.60;48.71
45040;BME280;30778;53.574;7.770;2023-02-25T01:06:13;100278.69;;;2.68;48.99
45040;BME280;30778;53.574;7.770;2023-02-25T01:08:39;100277.25;;;2.52;49.64
45040;BME280;30778;53.574;7.770;2023-02-25T01:11:22;100275.53;;;2.51;49.25
45040;BME280;30778;53.574;7.770;2023-02-25T01:13:55;100280.00;;;2.41;49.85
45040;BME280;30778;53.574;7.770;2023-02-25T01:16:22;100282.34;;;2.58;50.04
45040;BME280;30778;53.574;7.770;2023-02-25T01:18:53;100277.84;;;2.68;49.95
45040;BME280;30778;53.574;7.770;2023-02-25T01:21:23;100282.19;;;2.66;50.19
45040;BME280;30778;53.574;7.770;2023-02-25T01:23:54;100284.53;;;2.81;50.07
45040;BME280;30778;53.574;7.770;2023-02-25T01:26:25;100289.66;;;2.83;50.42
45040;BME280;30778;53.574;7.770;2023-02-25T01:28:51;100290.16;;;3.03;50.02
45040;BME280;30778;53.574;7.770;2023-02-25T01:31:18;100288.91;;;2.76;50.95
45040;BME280;30778;53.574;7.770;2023-02-25T01:33:49;100287.19;;;2.76;51.15
45040;BME280;30778;53.574;7.770;2023-02-25T01:36:15;100289.03;;;2.68;51.40
45040;BME280;30778;53.574;7.770;2023-02-25T01:38:41;100294.91;;;2.78;51.39
45040;BME280;30778;53.574;7.770;2023-02-25T01:41:07;100304.13;;;2.39;52.22
45040;BME280;30778;53.574;7.770;2023-02-25T01:43:33;100311.09;;;2.33;52.94
45040;BME280;30778;53.574;7.770;2023-02-25T01:45:59;100308.66;;;2.24;53.11
45040;BME280;30778;53.574;7.770;2023-02-25T01:48:35;100310.03;;;2.47;52.28
45040;BME280;30778;53.574;7.770;2023-02-25T01:51:05;100312.00;;;2.29;52.41
45040;BME280;30778;53.574;7.770;2023-02-25T01:53:37;100321.44;;;2.30;52.05
45040;BME280;30778;53.574;7.770;2023-02-25T01:56:05;100322.25;;;2.32;51.85
45040;BME280;30778;53.574;7.770;2023-02-25T01:58:32;100319.81;;;2.25;52.26
45040;BME280;30778;53.574;7.770;2023-02-25T02:00:59;100320.63;;;2.27;52.03
45040;BME280;30778;53.574;7.770;2023-02-25T02:03:28;100325.81;;;2.25;52.03
45040;BME280;30778;53.574;7.770;2023-02-25T02:06:11;100330.78;;;2.38;51.96
45040;BME280;30778;53.574;7.770;2023-02-25T02:08:41;100332.63;;;2.29;51.88
45040;BME280;30778;53.574;7.770;2023-02-25T02:11:08;100335.81;;;2.47;51.62
45040;BME280;30778;53.574;7.770;2023-02-25T02:13:36;100330.16;;;2.22;52.37
45040;BME280;30778;53.574;7.770;2023-02-25T02:18:57;100335.84;;;2.44;51.99
45040;BME280;30778;53.574;7.770;2023-02-25T02:21:48;100335.59;;;2.61;51.93
45040;BME280;30778;53.574;7.770;2023-02-25T02:24:33;100334.91;;;2.49;51.91
45040;BME280;30778;53.574;7.770;2023-02-25T02:27:13;100339.59;;;2.24;52.70
45040;BME280;30778;53.574;7.770;2023-02-25T02:35:14;100343.03;;;2.23;51.96
45040;BME280;30778;53.574;7.770;2023-02-25T02:40:54;100352.69;;;2.07;50.87
45040;BME280;30778;53.574;7.770;2023-02-25T02:46:09;100351.97;;;1.98;51.69
45040;BME280;30778;53.574;7.770;2023-02-25T02:48:45;100349.56;;;2.46;50.50
45040;BME280;30778;53.574;7.770;2023-02-25T02:51:20;100367.91;;;2.27;50.68
45040;BME280;30778;53.574;7.770;2023-02-25T02:53:53;100366.81;;;2.44;50.74
45040;BME280;30778;53.574;7.770;2023-02-25T02:56:21;100358.44;;;2.26;50.99
45040;BME280;30778;53.574;7.770;2023-02-25T02:59:01;100368.75;;;2.29;49.98
45040;BME280;30778;53.574;7.770;2023-02-25T03:01:44;100372.22;;;2.27;49.92
45040;BME280;30778;53.574;7.770;2023-02-25T03:04:15;100379.31;;;2.08;49.87
45040;BME280;30778;53.574;7.770;2023-02-25T03:06:44;100373.38;;;2.03;50.20
45040;BME280;30778;53.574;7.770;2023-02-25T03:09:17;100379.19;;;2.20;49.92
45040;BME280;30778;53.574;7.770;2023-02-25T03:11:44;100382.84;;;2.02;50.22
45040;BME280;30778;53.574;7.770;2023-02-25T03:14:12;100389.88;;;1.89;50.94
45040;BME280;30778;53.574;7.770;2023-02-25T03:16:43;100391.31;;;2.10;50.44
45040;BME280;30778;53.574;7.770;2023-02-25T03:19:20;100392.50;;;1.83;51.03
45040;BME280;30778;53.574;7.770;2023-02-25T03:21:51;100402.13;;;1.69;51.34
45040;BME280;30778;53.574;7.770;2023-02-25T03:24:24;100405.16;;;2.02;50.24
45040;BME280;30778;53.574;7.770;2023-02-25T03:26:53;100401.59;;;2.13;50.12
45040;BME280;30778;53.574;7.770;2023-02-25T03:29:23;100411.09;;;2.11;50.07
45040;BME280;30778;53.574;7.770;2023-02-25T03:31:58;100413.00;;;1.92;50.48
45040;BME280;30778;53.574;7.770;2023-02-25T03:34:39;100427.00;;;1.73;50.06
45040;BME280;30778;53.574;7.770;2023-02-25T03:37:12;100426.16;;;1.71;49.41
45040;BME280;30778;53.574;7.770;2023-02-25T03:39:42;100428.59;;;1.82;49.46
45040;BME280;30778;53.574;7.770;2023-02-25T03:42:13;100435.97;;;2.16;48.32
45040;BME280;30778;53.574;7.770;2023-02-25T03:44:45;100434.56;;;1.85;49.06
45040;BME280;30778;53.574;7.770;2023-02-25T03:47:12;100441.56;;;1.72;49.60
45040;BME280;30778;53.574;7.770;2023-02-25T03:49:47;100438.88;;;1.85;49.07
45040;BME280;30778;53.574;7.770;2023-02-25T03:52:17;100448.50;;;1.67;49.30
45040;BME280;30778;53.574;7.770;2023-02-25T03:54:51;100452.97;;;1.50;49.92
45040;BME280;30778;53.574;7.770;2023-02-25T03:57:18;100466.66;;;1.55;49.98
45040;BME280;30778;53.574;7.770;2023-02-25T03:59:44;100464.72;;;1.77;49.58
45040;BME280;30778;53.574;7.770;2023-02-25T04:02:11;100471.56;;;1.81;49.54
45040;BME280;30778;53.574;7.770;2023-02-25T04:04:38;100463.97;;;1.69;49.84
45040;BME280;30778;53.574;7.770;2023-02-25T04:07:03;100460.63;;;1.58;50.47
45040;BME280;30778;53.574;7.770;2023-02-25T04:09:28;100462.09;;;1.82;49.42
45040;BME280;30778;53.574;7.770;2023-02-25T04:11:54;100470.06;;;1.60;50.29
45040;BME280;30778;53.574;7.770;2023-02-25T04:14:23;100463.91;;;1.72;49.65
45040;BME280;30778;53.574;7.770;2023-02-25T04:16:48;100464.75;;;1.72;50.07
45040;BME280;30778;53.574;7.770;2023-02-25T04:19:14;100481.25;;;1.58;50.50
45040;BME280;30778;53.574;7.770;2023-02-25T04:21:41;100484.66;;;1.58;50.56
45040;BME280;30778;53.574;7.770;2023-02-25T04:24:08;100481.13;;;1.68;50.41
45040;BME280;30778;53.574;7.770;2023-02-25T04:26:34;100480.22;;;1.74;50.12
45040;BME280;30778;53.574;7.770;2023-02-25T04:28:59;100495.00;;;1.50;50.05
45040;BME280;30778;53.574;7.770;2023-02-25T04:31:25;100495.13;;;1.35;49.99
45040;BME280;30778;53.574;7.770;2023-02-25T04:33:51;100498.34;;;1.65;48.98
45040;BME280;30778;53.574;7.770;2023-02-25T04:36:27;100498.38;;;1.60;48.87
45040;BME280;30778;53.574;7.770;2023-02-25T04:38:53;100493.09;;;1.72;48.56
45040;BME280;30778;53.574;7.770;2023-02-25T04:41:19;100497.41;;;1.72;48.54
45040;BME280;30778;53.574;7.770;2023-02-25T04:43:44;100505.88;;;1.85;48.27
45040;BME280;30778;53.574;7.770;2023-02-25T04:46:11;100510.13;;;1.90;47.93
45040;BME280;30778;53.574;7.770;2023-02-25T04:48:37;100514.47;;;1.87;48.42
45040;BME280;30778;53.574;7.770;2023-02-25T04:51:04;100517.31;;;1.56;49.60
45040;BME280;30778;53.574;7.770;2023-02-25T04:53:30;100517.31;;;1.58;49.76
45040;BME280;30778;53.574;7.770;2023-02-25T04:55:56;100522.34;;;1.71;49.13
45040;BME280;30778;53.574;7.770;2023-02-25T04:58:21;100521.34;;;1.82;48.93
45040;BME280;30778;53.574;7.770;2023-02-25T05:00:46;100516.91;;;2.01;48.53
45040;BME280;30778;53.574;7.770;2023-02-25T05:03:12;100517.84;;;1.93;48.47
45040;BME280;30778;53.574;7.770;2023-02-25T05:05:37;100522.94;;;1.95;48.15
45040;BME280;30778;53.574;7.770;2023-02-25T05:08:03;100525.47;;;2.00;48.41
45040;BME280;30778;53.574;7.770;2023-02-25T05:10:28;100530.78;;;1.86;48.61
45040;BME280;30778;53.574;7.770;2023-02-25T05:12:55;100519.53;;;1.94;48.22
45040;BME280;30778;53.574;7.770;2023-02-25T05:15:20;100524.78;;;1.87;48.36
45040;BME280;30778;53.574;7.770;2023-02-25T05:17:46;100523.00;;;1.90;48.57
45040;BME280;30778;53.574;7.770;2023-02-25T05:20:13;100528.31;;;1.73;48.91
45040;BME280;30778;53.574;7.770;2023-02-25T05:22:40;100545.34;;;1.88;48.30
45040;BME280;30778;53.574;7.770;2023-02-25T05:25:06;100547.66;;;1.03;50.75
45040;BME280;30778;53.574;7.770;2023-02-25T05:27:32;100559.09;;;0.38;53.21
45040;BME280;30778;53.574;7.770;2023-02-25T05:30:01;100552.31;;;0.11;53.95
45040;BME280;30778;53.574;7.770;2023-02-25T05:32:28;100552.31;;;0.06;53.93
45040;BME280;30778;53.574;7.770;2023-02-25T05:34:54;100544.59;;;0.18;53.85
45040;BME280;30778;53.574;7.770;2023-02-25T05:37:19;100541.19;;;0.04;54.37
45040;BME280;30778;53.574;7.770;2023-02-25T05:39:45;100542.00;;;0.18;53.89
45040;BME280;30778;53.574;7.770;2023-02-25T05:42:10;100540.28;;;0.33;53.50
45040;BME280;30778;53.574;7.770;2023-02-25T05:44:35;100545.44;;;0.26;53.27
45040;BME280;30778;53.574;7.770;2023-02-25T05:47:01;100548.81;;;0.44;53.00
45040;BME280;30778;53.574;7.770;2023-02-25T05:49:26;100554.88;;;0.12;53.36
45040;BME280;30778;53.574;7.770;2023-02-25T05:51:52;100551.38;;;0.41;51.98
45040;BME280;30778;53.574;7.770;2023-02-25T05:54:17;100556.50;;;0.41;51.60
45040;BME280;30778;53.574;7.770;2023-02-25T05:56:43;100564.25;;;0.44;51.20
45040;BME280;30778;53.574;7.770;2023-02-25T05:59:10;100567.66;;;0.43;51.00
45040;BME280;30778;53.574;7.770;2023-02-25T06:01:35;100576.28;;;0.20;51.56
45040;BME280;30778;53.574;7.770;2023-02-25T06:04:01;100581.34;;;0.51;50.83
45040;BME280;30778;53.574;7.770;2023-02-25T06:06:28;100582.22;;;0.48;50.33
45040;BME280;30778;53.574;7.770;2023-02-25T06:08:54;100584.81;;;0.25;50.73
45040;BME280;30778;53.574;7.770;2023-02-25T06:11:25;100586.56;;;0.16;49.48
45040;BME280;30778;53.574;7.770;2023-02-25T06:13:52;100596.84;;;0.14;48.57
45040;BME280;30778;53.574;7.770;2023-02-25T06:16:19;100604.56;;;-0.10;47.99
45040;BME280;30778;53.574;7.770;2023-02-25T06:18:45;100610.56;;;0.12;47.57
45040;BME280;30778;53.574;7.770;2023-02-25T06:21:12;100612.28;;;-0.20;47.32
45040;BME280;30778;53.574;7.770;2023-02-25T06:23:39;100624.28;;;-0.09;45.98
45040;BME280;30778;53.574;7.770;2023-02-25T06:26:06;100619.13;;;-0.16;46.12
45040;BME280;30778;53.574;7.770;2023-02-25T06:28:32;100632.00;;;-0.08;45.56
45040;BME280;30778;53.574;7.770;2023-02-25T06:30:58;100621.69;;;-0.02;45.18
45040;BME280;30778;53.574;7.770;2023-02-25T06:33:23;100630.28;;;-0.21;44.48
45040;BME280;30778;53.574;7.770;2023-02-25T06:35:51;100623.41;;;-0.04;43.95
45040;BME280;30778;53.574;7.770;2023-02-25T06:38:16;100635.38;;;0.25;43.21
45040;BME280;30778;53.574;7.770;2023-02-25T06:40:42;100648.25;;;0.17;44.44
45040;BME280;30778;53.574;7.770;2023-02-25T06:43:07;100639.69;;;0.37;44.18
45040;BME280;30778;53.574;7.770;2023-02-25T06:45:32;100645.63;;;0.54;43.86
45040;BME280;30778;53.574;7.770;2023-02-25T06:47:58;100649.97;;;0.01;45.04
45040;BME280;30778;53.574;7.770;2023-02-25T06:50:23;100657.59;;;0.69;44.27
45040;BME280;30778;53.574;7.770;2023-02-25T06:52:49;100655.97;;;0.31;45.25
45040;BME280;30778;53.574;7.770;2023-02-25T06:55:14;100666.25;;;0.31;44.84
45040;BME280;30778;53.574;7.770;2023-02-25T06:57:40;100675.66;;;0.49;44.56
45040;BME280;30778;53.574;7.770;2023-02-25T07:00:06;100671.38;;;0.40;44.13
45040;BME280;30778;53.574;7.770;2023-02-25T07:02:32;100677.41;;;0.10;44.02
45040;BME280;30778;53.574;7.770;2023-02-25T07:04:57;100692.81;;;0.30;43.69
45040;BME280;30778;53.574;7.770;2023-02-25T07:07:24;100696.22;;;0.44;42.76
45040;BME280;30778;53.574;7.770;2023-02-25T07:09:50;100684.19;;;0.60;42.28
45040;BME280;30778;53.574;7.770;2023-02-25T07:12:15;100696.22;;;0.43;41.29
45040;BME280;30778;53.574;7.770;2023-02-25T07:14:41;100706.53;;;0.40;40.70
45040;BME280;30778;53.574;7.770;2023-02-25T07:17:06;100696.22;;;-0.00;41.63
45040;BME280;30778;53.574;7.770;2023-02-25T07:19:32;100701.38;;;0.24;41.50
45040;BME280;30778;53.574;7.770;2023-02-25T07:21:57;100711.66;;;0.38;41.64
45040;BME280;30778;53.574;7.770;2023-02-25T07:24:23;100711.59;;;0.89;41.02
45040;BME280;30778;53.574;7.770;2023-02-25T07:26:49;100729.59;;;0.81;41.68
45040;BME280;30778;53.574;7.770;2023-02-25T07:29:14;100725.34;;;0.73;41.89
45040;BME280;30778;53.574;7.770;2023-02-25T07:31:40;100726.22;;;0.42;42.60
45040;BME280;30778;53.574;7.770;2023-02-25T07:34:05;100723.63;;;0.56;41.96
45040;BME280;30778;53.574;7.770;2023-02-25T07:36:34;100748.53;;;0.42;42.38
45040;BME280;30778;53.574;7.770;2023-02-25T07:39:04;100743.38;;;0.28;43.21
45040;BME280;30778;53.574;7.770;2023-02-25T07:41:31;100741.66;;;0.52;42.20
45040;BME280;30778;53.574;7.770;2023-02-25T07:44:01;100763.09;;;0.51;42.61
45040;BME280;30778;53.574;7.770;2023-02-25T07:46:28;100759.63;;;0.50;39.78
45040;BME280;30778;53.574;7.770;2023-02-25T07:48:54;100758.81;;;0.23;36.92
45040;BME280;30778;53.574;7.770;2023-02-25T07:51:21;100760.50;;;0.47;37.51
45040;BME280;30778;53.574;7.770;2023-02-25T07:53:49;100749.78;;;1.98;35.56
45040;BME280;30778;53.574;7.770;2023-02-25T07:56:15;100772.44;;;2.73;35.08
45040;BME280;30778;53.574;7.770;2023-02-25T07:58:42;100768.41;;;4.55;32.11
45040;BME280;30778;53.574;7.770;2023-02-25T08:01:12;100767.69;;;3.88;33.28
45040;BME280;30778;53.574;7.770;2023-02-25T08:03:40;100772.97;;;4.41;31.41
45040;BME280;30778;53.574;7.770;2023-02-25T08:06:06;100764.13;;;4.53;30.15
45040;BME280;30778;53.574;7.770;2023-02-25T08:08:34;100767.34;;;5.59;27.99
45040;BME280;30778;53.574;7.770;2023-02-25T08:11:04;100775.47;;;6.23;26.80
45040;BME280;30778;53.574;7.770;2023-02-25T08:13:29;100778.97;;;5.83;27.27
45040;BME280;30778;53.574;7.770;2023-02-25T08:15:55;100790.44;;;5.28;27.29
45040;BME280;30778;53.574;7.770;2023-02-25T08:18:21;100789.97;;;5.09;28.17
45040;BME280;30778;53.574;7.770;2023-02-25T08:20:46;100798.25;;;4.76;28.92
45040;BME280;30778;53.574;7.770;2023-02-25T08:23:12;100791.91;;;4.96;29.79
45040;BME280;30778;53.574;7.770;2023-02-25T08:25:38;100810.78;;;5.91;27.93
45040;BME280;30778;53.574;7.770;2023-02-25T08:28:06;100806.94;;;5.69;27.87
45040;BME280;30778;53.574;7.770;2023-02-25T08:30:32;100800.34;;;5.52;28.61
45040;BME280;30778;53.574;7.770;2023-02-25T08:32:57;100814.72;;;5.69;28.46
45040;BME280;30778;53.574;7.770;2023-02-25T08:35:24;100813.94;;;5.18;29.76
45040;BME280;30778;53.574;7.770;2023-02-25T08:37:52;100820.22;;;5.53;29.40
45040;BME280;30778;53.574;7.770;2023-02-25T08:40:19;100824.22;;;5.23;29.86
45040;BME280;30778;53.574;7.770;2023-02-25T08:42:45;100827.00;;;5.14;30.36
45040;BME280;30778;53.574;7.770;2023-02-25T08:45:11;100828.06;;;5.03;26.81
45040;BME280;30778;53.574;7.770;2023-02-25T08:47:36;100833.94;;;5.12;27.46
45040;BME280;30778;53.574;7.770;2023-02-25T08:50:02;100833.53;;;5.35;27.43
45040;BME280;30778;53.574;7.770;2023-02-25T08:52:30;100841.72;;;4.57;28.92
45040;BME280;30778;53.574;7.770;2023-02-25T08:54:59;100842.09;;;5.38;28.36
45040;BME280;30778;53.574;7.770;2023-02-25T08:57:25;100854.09;;;4.94;29.47
45040;BME280;30778;53.574;7.770;2023-02-25T08:59:51;100863.81;;;4.80;30.44
45040;BME280;30778;53.574;7.770;2023-02-25T09:02:16;100869.34;;;4.55;30.81
45040;BME280;30778;53.574;7.770;2023-02-25T09:04:42;100881.00;;;4.84;31.06
45040;BME280;30778;53.574;7.770;2023-02-25T09:07:07;100888.41;;;5.07;31.44
45040;BME280;30778;53.574;7.770;2023-02-25T09:09:33;100900.53;;;3.79;32.93
45040;BME280;30778;53.574;7.770;2023-02-25T09:11:58;100900.41;;;3.90;33.04
45040;BME280;30778;53.574;7.770;2023-02-25T09:14:24;100914.81;;;3.31;33.51
45040;BME280;30778;53.574;7.770;2023-02-25T09:16:50;100921.47;;;2.33;34.54
45040;BME280;30778;53.574;7.770;2023-02-25T09:19:16;100919.03;;;2.04;35.07
45040;BME280;30778;53.574;7.770;2023-02-25T09:21:43;100941.41;;;1.92;35.42
45040;BME280;30778;53.574;7.770;2023-02-25T09:24:09;100950.91;;;1.80;35.94
45040;BME280;30778;53.574;7.770;2023-02-25T09:26:35;100947.19;;;2.50;35.11
45040;BME280;30778;53.574;7.770;2023-02-25T09:29:03;100962.13;;;1.49;35.81
45040;BME280;30778;53.574;7.770;2023-02-25T09:31:29;100950.97;;;1.55;35.65
45040;BME280;30778;53.574;7.770;2023-02-25T09:33:55;100970.50;;;2.31;35.92
45040;BME280;30778;53.574;7.770;2023-02-25T09:36:21;100977.44;;;2.20;34.89
45040;BME280;30778;53.574;7.770;2023-02-25T09:38:48;100969.81;;;1.31;35.71
45040;BME280;30778;53.574;7.770;2023-02-25T09:41:27;100981.75;;;0.71;36.89
45040;BME280;30778;53.574;7.770;2023-02-25T09:44:04;100996.34;;;2.14;35.46
45040;BME280;30778;53.574;7.770;2023-02-25T09:46:35;101004.97;;;2.03;34.72
45040;BME280;30778;53.574;7.770;2023-02-25T09:49:07;101001.31;;;2.65;34.39
45040;BME280;30778;53.574;7.770;2023-02-25T09:51:37;101002.03;;;2.90;33.40
45040;BME280;30778;53.574;7.770;2023-02-25T09:54:28;101002.22;;;2.56;33.98
45040;BME280;30778;53.574;7.770;2023-02-25T09:56:57;101010.84;;;2.46;34.19
45040;BME280;30778;53.574;7.770;2023-02-25T09:59:27;101021.25;;;2.17;34.44
45040;BME280;30778;53.574;7.770;2023-02-25T10:02:12;101010.81;;;2.51;35.30
45040;BME280;30778;53.574;7.770;2023-02-25T10:07:33;101017.59;;;2.75;33.36
45040;BME280;30778;53.574;7.770;2023-02-25T10:10:07;101020.91;;;3.00;33.98
45040;BME280;30778;53.574;7.770;2023-02-25T10:28:32;101043.50;;;2.55;33.33
45040;BME280;30778;53.574;7.770;2023-02-25T10:31:06;101043.31;;;2.98;33.09
45040;BME280;30778;53.574;7.770;2023-02-25T10:33:35;101025.03;;;3.29;33.47
45040;BME280;30778;53.574;7.770;2023-02-25T10:36:09;101040.28;;;3.63;33.81
45040;BME280;30778;53.574;7.770;2023-02-25T10:38:51;101051.44;;;3.71;33.07
45040;BME280;30778;53.574;7.770;2023-02-25T10:41:19;101049.69;;;3.74;32.84
45040;BME280;30778;53.574;7.770;2023-02-25T10:43:48;101040.75;;;4.05;32.59
45040;BME280;30778;53.574;7.770;2023-02-25T10:48:55;101054.72;;;3.87;32.69
45040;BME280;30778;53.574;7.770;2023-02-25T10:51:22;101058.69;;;3.16;32.38
45040;BME280;30778;53.574;7.770;2023-02-25T10:56:23;101055.59;;;3.87;32.46
45040;BME280;30778;53.574;7.770;2023-02-25T10:59:03;101050.94;;;3.16;33.12
45040;BME280;30778;53.574;7.770;2023-02-25T11:01:40;101064.78;;;3.05;33.34
45040;BME280;30778;53.574;7.770;2023-02-25T11:04:13;101058.38;;;3.63;32.87
45040;BME280;30778;53.574;7.770;2023-02-25T11:06:41;101061.88;;;3.57;32.02
45040;BME280;30778;53.574;7.770;2023-02-25T11:09:31;101064.44;;;3.62;33.46
45040;BME280;30778;53.574;7.770;2023-02-25T11:12:16;101066.25;;;3.50;33.14
45040;BME280;30778;53.574;7.770;2023-02-25T11:14:43;101074.66;;;3.77;34.16
45040;BME280;30778;53.574;7.770;2023-02-25T11:20:00;101083.25;;;3.79;32.47
45040;BME280;30778;53.574;7.770;2023-02-25T11:22:39;101064.28;;;3.80;31.31
45040;BME280;30778;53.574;7.770;2023-02-25T11:25:16;101077.13;;;3.89;32.13
45040;BME280;30778;53.574;7.770;2023-02-25T11:27:46;101089.06;;;4.06;31.73
45040;BME280;30778;53.574;7.770;2023-02-25T11:30:18;101093.19;;;4.22;32.45
45040;BME280;30778;53.574;7.770;2023-02-25T11:32:49;101090.91;;;4.73;31.27
45040;BME280;30778;53.574;7.770;2023-02-25T11:35:38;101103.69;;;4.07;31.73
45040;BME280;30778;53.574;7.770;2023-02-25T11:38:24;101102.66;;;4.25;31.27
45040;BME280;30778;53.574;7.770;2023-02-25T11:40:51;101102.00;;;4.02;30.66
45040;BME280;30778;53.574;7.770;2023-02-25T11:43:21;101110.97;;;3.62;30.23
45040;BME280;30778;53.574;7.770;2023-02-25T11:45:49;101110.00;;;3.75;30.89
45040;BME280;30778;53.574;7.770;2023-02-25T11:48:18;101110.88;;;3.71;30.08
45040;BME280;30778;53.574;7.770;2023-02-25T11:51:07;101122.72;;;3.99;29.57
45040;BME280;30778;53.574;7.770;2023-02-25T11:53:49;101117.78;;;3.70;29.62
45040;BME280;30778;53.574;7.770;2023-02-25T11:56:24;101115.94;;;3.86;29.82
45040;BME280;30778;53.574;7.770;2023-02-25T12:23:48;101130.03;;;3.42;29.70
45040;BME280;30778;53.574;7.770;2023-02-25T12:35:19;101155.94;;;3.34;31.67
45040;BME280;30778;53.574;7.770;2023-02-25T12:38:18;101159.19;;;3.63;31.15
45040;BME280;30778;53.574;7.770;2023-02-25T12:41:13;101160.78;;;3.85;30.46
45040;BME280;30778;53.574;7.770;2023-02-25T12:43:51;101166.53;;;4.21;30.76
45040;BME280;30778;53.574;7.770;2023-02-25T12:48:48;101178.03;;;3.80;31.34
45040;BME280;30778;53.574;7.770;2023-02-25T12:56:58;101185.63;;;4.06;30.18
45040;BME280;30778;53.574;7.770;2023-02-25T13:02:45;101194.78;;;4.46;30.52
45040;BME280;30778;53.574;7.770;2023-02-25T13:08:42;101191.81;;;3.82;31.73
45040;BME280;30778;53.574;7.770;2023-02-25T13:21:58;101197.63;;;4.13;31.69
45040;BME280;30778;53.574;7.770;2023-02-25T13:24:47;101210.03;;;3.64;33.04
45040;BME280;30778;53.574;7.770;2023-02-25T13:27:31;101201.16;;;4.01;31.18
45040;BME280;30778;53.574;7.770;2023-02-25T13:32:59;101202.72;;;4.22;30.87
45040;BME280;30778;53.574;7.770;2023-02-25T13:35:52;101212.91;;;4.42;31.53
45040;BME280;30778;53.574;7.770;2023-02-25T13:41:14;101216.16;;;3.44;32.37
45040;BME280;30778;53.574;7.770;2023-02-25T13:50:00;101214.88;;;4.13;31.04
45040;BME280;30778;53.574;7.770;2023-02-25T13:52:32;101221.69;;;4.25;30.51
45040;BME280;30778;53.574;7.770;2023-02-25T14:08:51;101226.06;;;5.09;29.40
45040;BME280;30778;53.574;7.770;2023-02-25T14:12:00;101208.28;;;5.51;28.33
45040;BME280;30778;53.574;7.770;2023-02-25T14:14:40;101237.50;;;4.87;29.70
45040;BME280;30778;53.574;7.770;2023-02-25T14:17:31;101244.84;;;4.41;30.83
45040;BME280;30778;53.574;7.770;2023-02-25T14:20:44;101246.59;;;4.39;29.89
45040;BME280;30778;53.574;7.770;2023-02-25T14:23:08;101246.59;;;4.39;31.28
45040;BME280;30778;53.574;7.770;2023-02-25T14:31:12;101249.59;;;4.88;31.49
45040;BME280;30778;53.574;7.770;2023-02-25T14:34:06;101254.84;;;4.80;31.83
45040;BME280;30778;53.574;7.770;2023-02-25T14:39:54;101258.34;;;3.52;32.72
45040;BME280;30778;53.574;7.770;2023-02-25T14:45:02;101268.91;;;4.50;32.02
45040;BME280;30778;53.574;7.770;2023-02-25T14:48:13;101263.50;;;3.51;32.36
45040;BME280;30778;53.574;7.770;2023-02-25T14:56:03;101283.41;;;3.23;33.65
45040;BME280;30778;53.574;7.770;2023-02-25T15:01:49;101281.94;;;4.40;30.90
45040;BME280;30778;53.574;7.770;2023-02-25T15:04:33;101291.94;;;3.51;30.85
45040;BME280;30778;53.574;7.770;2023-02-25T15:07:25;101286.69;;;3.65;30.98
45040;BME280;30778;53.574;7.770;2023-02-25T15:15:23;101296.31;;;3.32;31.90
45040;BME280;30778;53.574;7.770;2023-02-25T15:20:39;101297.03;;;3.65;32.66
45040;BME280;30778;53.574;7.770;2023-02-25T15:28:02;101304.91;;;3.42;33.73
45040;BME280;30778;53.574;7.770;2023-02-25T15:33:33;101300.66;;;3.05;34.81
45040;BME280;30778;53.574;7.770;2023-02-25T15:36:01;101312.72;;;2.75;35.62
45040;BME280;30778;53.574;7.770;2023-02-25T15:38:55;101307.59;;;2.80;36.00
45040;BME280;30778;53.574;7.770;2023-02-25T15:43:57;101324.75;;;2.89;35.88
45040;BME280;30778;53.574;7.770;2023-02-25T15:51:48;101340.28;;;2.63;37.91
45040;BME280;30778;53.574;7.770;2023-02-25T15:56:56;101341.84;;;1.91;39.02
45040;BME280;30778;53.574;7.770;2023-02-25T15:59:51;101341.81;;;1.88;39.12
45040;BME280;30778;53.574;7.770;2023-02-25T16:07:36;101342.66;;;1.80;40.40
45040;BME280;30778;53.574;7.770;2023-02-25T16:10:18;101350.44;;;1.92;40.42
45040;BME280;30778;53.574;7.770;2023-02-25T16:12:48;101346.91;;;1.70;40.62